Time;durP1;ratioP1;P1;durP2;ratioP2;P2;SDS_P1;SDS_P2;PMS_P1;PMS_P2;Temp;Humidity;BMP_temperature;BMP_pressure;BME280_temperature;BME280_humidity;BME280_pressure;Samples;Min_cycle;Max_cycle;Signal;HPM_P1;HPM_P2
2023/03/20 00:33:18;;;;;;;74.60;43.10;;;;;;;7.38;63.33;100289.73;125413;1290;130746;-69
2023/03/20 00:37:00;;;;;;;;;;;;;;;;;;;;;
2023/03/20 00:49:45;;;;;;;67.80;41.50;;;;;;;7.53;63.54;100283.32;124544;1295;113775;-68
2023/03/20 00:57:39;;;;;;;62.70;39.50;;;;;;;7.61;63.74;100283.06;126264;1282;114197;-68
2023/03/20 01:14:45;;;;;;;64.90;39.50;;;;;;;7.77;63.76;100274.64;127028;1277;128463;-68
2023/03/20 01:19:11;;;;;;;;;;;;;;;;;;;;;
2023/03/20 01:37:34;;;;;;;59.20;35.60;;;;;;;7.99;64.58;100279.81;129223;1275;129720;-68
2023/03/20 01:41:21;;;;;;;59.00;36.10;;;;;;;8.05;64.83;100282.25;129634;1275;114837;-68
2023/03/20 02:02:35;;;;;;;;;;;;;;;;;;;;;
2023/03/20 02:36:54;;;;;;;;;;;;;;;;;;;;;
2023/03/20 02:40:55;;;;;;;39.00;27.20;;;;;;;8.79;68.76;100272.89;124107;1303;128707;-68
2023/03/20 02:53:47;;;;;;;37.80;26.70;;;;;;;8.92;70.05;100273.73;125032;1294;115444;-67
2023/03/20 02:57:26;;;;;;;;;;;;;;;;;;;;;
2023/03/20 03:06:05;;;;;;;;;;;;;;;;;;;;;
2023/03/20 03:27:40;;;;;;;41.30;26.30;;;;;;;9.18;71.21;100265.89;126395;1282;114740;-66
2023/03/20 03:40:10;;;;;;;35.90;24.90;;;;;;;9.23;71.81;100266.18;126105;1283;114999;-67
2023/03/20 04:05:28;;;;;;;;;;;;;;;;;;;;;
2023/03/20 04:09:05;;;;;;;37.80;26.90;;;;;;;9.25;71.54;100261.82;129118;1276;114953;-66
2023/03/20 04:12:40;;;;;;;39.50;28.90;;;;;;;9.25;71.50;100262.86;126966;1276;113645;-68
2023/03/20 04:16:35;;;;;;;40.20;29.70;;;;;;;9.25;71.53;100263.73;128248;1267;114545;-65
2023/03/20 04:24:34;;;;;;;;;;;;;;;;;;;;;
2023/03/20 04:41:59;;;;;;;39.10;30.10;;;;;;;9.26;72.12;100272.83;127314;1268;114899;-67
2023/03/20 04:54:04;;;;;;;35.70;28.00;;;;;;;9.24;72.23;100274.16;127422;1270;115653;-68
2023/03/20 04:57:40;;;;;;;37.20;28.50;;;;;;;9.24;72.30;100281.98;127434;1267;113698;-68
2023/03/20 05:00:50;;;;;;;35.20;26.90;;;;;;;9.23;72.13;100283.25;127386;1267;114909;-67
2023/03/20 05:08:50;;;;;;;38.10;26.30;;;;;;;9.23;72.41;100288.96;127566;1267;113827;-68
2023/03/20 05:16:52;;;;;;;34.50;25.90;;;;;;;9.20;72.38;100285.55;131119;1261;114746;-68
2023/03/20 05:20:04;;;;;;;35.10;26.00;;;;;;;9.19;72.35;100284.68;131068;1263;114700;-68
2023/03/20 05:23:36;;;;;;;35.10;25.70;;;;;;;9.19;72.86;100285.58;131628;1254;128880;-66
2023/03/20 05:26:47;;;;;;;34.40;24.60;;;;;;;9.20;72.77;100290.89;128589;1258;114686;-67
2023/03/20 05:30:03;;;;;;;37.00;26.30;;;;;;;9.21;72.84;100287.63;128711;1257;113540;-67
2023/03/20 05:33:28;;;;;;;35.10;26.30;;;;;;;9.23;72.95;100289.52;131709;1254;114067;-67
2023/03/20 05:36:43;;;;;;;;;;;;;;;;;;;;;
2023/03/20 05:39:49;;;;;;;32.00;25.70;;;;;;;9.26;72.92;100295.95;131610;1254;128809;-67
2023/03/20 05:43:02;;;;;;;34.00;25.60;;;;;;;9.29;72.80;100299.95;131482;1254;115266;-67
2023/03/20 05:50:46;;;;;;;34.80;25.60;;;;;;;9.35;73.33;100303.45;131096;1261;113599;-68
2023/03/20 05:53:52;;;;;;;42.10;28.00;;;;;;;9.40;73.34;100306.59;131133;1261;114290;-68
2023/03/20 05:56:56;;;;;;;35.50;25.90;;;;;;;9.45;73.53;100310.98;130980;1261;127795;-67
2023/03/20 06:00:12;;;;;;;37.00;27.50;;;;;;;9.52;73.57;100308.20;131077;1260;115421;-67
2023/03/20 06:03:26;;;;;;;37.40;27.20;;;;;;;9.61;73.88;100305.81;130889;1264;114668;-68
2023/03/20 06:06:36;;;;;;;36.30;27.00;;;;;;;9.74;74.04;100305.21;131175;1259;113808;-67
2023/03/20 06:09:42;;;;;;;33.70;25.40;;;;;;;9.87;74.32;100307.66;131108;1261;114827;-68
2023/03/20 06:22:09;;;;;;;29.80;21.40;;;;;;;10.35;74.28;100311.84;127112;1274;114947;-68
2023/03/20 06:34:53;;;;;;;27.80;19.70;;;;;;;10.70;74.42;100324.64;126871;1276;127055;-68
2023/03/20 06:42:44;;;;;;;23.50;17.90;;;;;;;10.77;74.44;100329.81;119618;1274;115754;-67
2023/03/20 06:45:51;;;;;;;31.10;20.00;;;;;;;10.82;74.46;100324.95;127052;1275;116119;-65
2023/03/20 06:49:23;;;;;;;22.60;18.40;;;;;;;10.88;74.36;100330.52;127387;1267;113646;-68
2023/03/20 06:52:26;;;;;;;22.10;17.80;;;;;;;10.93;74.45;100328.81;130518;1268;113542;-68
2023/03/20 06:55:36;;;;;;;23.60;17.80;;;;;;;10.98;74.28;100332.92;127536;1267;115467;-68
2023/03/20 06:59:09;;;;;;;25.40;18.90;;;;;;;11.02;74.31;100328.73;130354;1265;127673;-68
2023/03/20 07:02:13;;;;;;;25.90;18.00;;;;;;;11.06;74.39;100331.75;131070;1262;113688;-67
2023/03/20 07:05:17;;;;;;;27.60;19.00;;;;;;;11.09;74.45;100331.77;131249;1257;114652;-67
2023/03/20 07:08:22;;;;;;;29.70;19.60;;;;;;;11.14;74.42;100334.39;131662;1254;114515;-65
2023/03/20 07:11:32;;;;;;;22.90;18.30;;;;;;;11.19;74.65;100333.98;131709;1257;113482;-67
2023/03/20 07:14:42;;;;;;;28.00;20.80;;;;;;;11.24;74.78;100337.81;131639;1254;128849;-68
2023/03/20 07:17:52;;;;;;;26.50;20.60;;;;;;;11.29;74.52;100339.20;131718;1254;115246;-67
2023/03/20 07:25:48;;;;;;;;;;;;;;;;;;;;;
2023/03/20 07:29:13;;;;;;;30.20;21.50;;;;;;;11.33;74.64;100341.44;131168;1259;114873;-68
2023/03/20 07:32:21;;;;;;;26.90;19.30;;;;;;;11.34;74.61;100344.78;128004;1263;127773;-68
2023/03/20 07:35:34;;;;;;;26.30;20.40;;;;;;;11.36;74.44;100347.90;128119;1261;114735;-67
2023/03/20 07:38:42;;;;;;;33.70;21.80;;;;;;;11.38;74.38;100345.70;128034;1260;113517;-68
2023/03/20 07:41:57;;;;;;;25.20;20.70;;;;;;;11.40;74.67;100343.80;128274;1259;113495;-66
2023/03/20 07:45:35;;;;;;;29.10;22.00;;;;;;;11.41;74.65;100343.91;128031;1259;113546;-67
2023/03/20 07:48:57;;;;;;;27.70;21.20;;;;;;;11.45;74.43;100348.72;128062;1263;128681;-68
2023/03/20 08:01:27;;;;;;;28.20;22.20;;;;;;;11.77;75.14;100352.91;128583;1257;114738;-67
2023/03/20 08:04:45;;;;;;;27.30;20.80;;;;;;;11.93;75.33;100352.23;128628;1254;113582;-64
2023/03/20 08:08:01;;;;;;;29.10;20.80;;;;;;;12.04;74.82;100355.79;128448;1254;129747;-64
2023/03/20 08:11:07;;;;;;;30.20;21.90;;;;;;;12.13;74.58;100356.75;128620;1258;115281;-66
2023/03/20 08:14:11;;;;;;;28.60;21.10;;;;;;;12.22;74.73;100358.97;128789;1255;113454;-68
2023/03/20 08:17:19;;;;;;;31.30;22.10;;;;;;;12.30;74.53;100360.63;128785;1255;113433;-67
2023/03/20 08:20:22;;;;;;;25.60;21.20;;;;;;;12.38;74.11;100358.43;131667;1254;113524;-63
2023/03/20 08:23:34;;;;;;;27.50;19.00;;;;;;;12.43;74.35;100361.88;128714;1257;128597;-64
2023/03/20 08:26:50;;;;;;;;;;;;;;;;;;;;;
2023/03/20 08:34:27;;;;;;;30.20;23.00;;;;;;;12.65;73.71;100361.94;128070;1262;114909;-63
2023/03/20 08:37:39;;;;;;;25.80;21.50;;;;;;;12.67;73.46;100363.58;128167;1260;113663;-62
2023/03/20 08:40:47;;;;;;;26.60;20.80;;;;;;;12.68;73.40;100367.30;128168;1261;128722;-61
2023/03/20 08:43:54;;;;;;;28.20;20.60;;;;;;;12.68;73.25;100365.86;128113;1263;116170;-64
2023/03/20 08:51:43;;;;;;;28.80;18.10;;;;;;;12.59;72.89;100370.32;127696;1267;115545;-64
2023/03/20 08:59:40;;;;;;;25.80;18.50;;;;;;;12.55;72.99;100372.66;127757;1264;128496;-64
2023/03/20 09:02:51;;;;;;;24.70;17.90;;;;;;;12.58;72.82;100372.85;127639;1267;117524;-65
2023/03/20 09:06:24;;;;;;;23.30;17.90;;;;;;;12.62;72.96;100379.30;127764;1264;113686;-65
2023/03/20 09:09:32;;;;;;;29.20;18.00;;;;;;;12.65;72.71;100377.86;128186;1264;113718;-63
2023/03/20 09:12:43;;;;;;;29.90;18.90;;;;;;;12.69;72.78;100377.11;127914;1260;113641;-64
2023/03/20 09:20:27;;;;;;;25.80;19.60;;;;;;;12.75;72.22;100377.46;127987;1260;114727;-65
2023/03/20 09:28:12;;;;;;;25.50;19.60;;;;;;;12.68;71.85;100376.41;128296;1261;114783;-63
2023/03/20 09:31:23;;;;;;;24.90;18.40;;;;;;;12.73;72.06;100375.05;128699;1254;113505;-64
2023/03/20 09:34:49;;;;;;;28.90;19.90;;;;;;;12.82;72.12;100375.65;128478;1254;128866;-64
2023/03/20 09:38:20;;;;;;;26.90;18.90;;;;;;;12.95;72.07;100377.41;128643;1254;115873;-64
2023/03/20 09:41:35;;;;;;;23.80;17.70;;;;;;;13.12;71.97;100372.65;128620;1257;113523;-64
2023/03/20 09:45:18;;;;;;;25.20;17.50;;;;;;;13.24;71.45;100369.06;128729;1255;113532;-65
2023/03/20 09:48:40;;;;;;;23.50;17.20;;;;;;;13.33;71.31;100368.52;128321;1276;113702;-65
2023/03/20 09:52:17;;;;;;;32.40;19.60;;;;;;;13.42;71.19;100364.46;128588;1258;128843;-65
2023/03/20 09:55:40;;;;;;;24.50;17.50;;;;;;;13.55;71.09;100365.12;128256;1263;115368;-65
2023/03/20 09:58:56;;;;;;;22.50;17.40;;;;;;;13.69;71.23;100366.59;128566;1255;113599;-65
2023/03/20 10:02:42;;;;;;;22.20;16.20;;;;;;;13.81;70.80;100363.17;128751;1254;113437;-64
2023/03/20 10:06:15;;;;;;;26.70;19.30;;;;;;;13.92;70.63;100362.28;128669;1258;114042;-64
2023/03/20 10:09:51;;;;;;;;;;;;;;;;;;;;;
2023/03/20 10:13:58;;;;;;;23.10;18.00;;;;;;;14.20;70.35;100357.64;128580;1254;114712;-64
2023/03/20 10:17:41;;;;;;;22.30;16.90;;;;;;;14.42;70.16;100359.13;127325;1270;113534;-71
2023/03/20 10:20:54;;;;;;;21.30;15.70;;;;;;;14.58;70.15;100354.86;130692;1267;113544;-72
2023/03/20 10:24:08;;;;;;;17.60;15.40;;;;;;;14.80;70.05;100351.52;130804;1267;113783;-71
2023/03/20 10:36:31;;;;;;;19.20;14.60;;;;;;;15.58;68.83;100335.02;130637;1269;114699;-80
2023/03/20 10:44:32;;;;;;;16.30;13.60;;;;;;;15.90;68.00;100327.05;128088;1277;114988;-71
2023/03/20 10:47:55;;;;;;;22.60;13.90;;;;;;;15.92;67.70;100326.91;127014;1278;127832;-72
2023/03/20 10:51:22;;;;;;;16.80;13.20;;;;;;;15.94;67.34;100322.08;127451;1277;116834;-68
2023/03/20 10:55:38;;;;;;;15.40;12.90;;;;;;;15.86;66.82;100321.20;129872;1267;114787;-70
2023/03/20 10:58:47;;;;;;;10.00;8.40;;;;;;;15.86;67.03;100319.80;130715;1264;114561;-67
2023/03/20 11:01:56;;;;;;;21.60;13.50;;;;;;;15.88;67.05;100315.01;127623;1265;113681;-70
2023/03/20 11:05:32;;;;;;;18.50;12.20;;;;;;;15.89;66.92;100311.77;127570;1265;127769;-69
2023/03/20 11:08:45;;;;;;;22.70;15.50;;;;;;;16.00;67.13;100313.40;130959;1261;115284;-77
2023/03/20 11:11:54;;;;;;;15.30;11.70;;;;;;;16.12;66.58;100315.42;131103;1261;114572;-74
2023/03/20 11:14:59;;;;;;;15.80;11.60;;;;;;;16.19;66.38;100313.28;131063;1260;114630;-74
2023/03/20 11:18:12;;;;;;;15.20;12.60;;;;;;;16.24;66.09;100313.10;130780;1263;114740;-70
2023/03/20 11:21:27;;;;;;;14.20;11.20;;;;;;;16.36;65.97;100313.29;131446;1254;127725;-70
2023/03/20 11:25:04;;;;;;;14.20;10.40;;;;;;;16.50;66.16;100312.80;131651;1254;115231;-71
2023/03/20 11:28:46;;;;;;;21.00;14.00;;;;;;;16.67;65.71;100314.25;131717;1255;114543;-69
2023/03/20 11:31:51;;;;;;;15.20;10.30;;;;;;;16.82;65.08;100314.00;131574;1255;113589;-73
2023/03/20 11:34:57;;;;;;;12.30;10.50;;;;;;;16.93;65.18;100304.89;131498;1254;114653;-62
2023/03/20 11:38:17;;;;;;;13.70;10.70;;;;;;;17.07;64.59;100305.29;128731;1254;127710;-62
2023/03/20 11:41:31;;;;;;;13.70;10.40;;;;;;;17.16;64.27;100303.37;128522;1260;115874;-62
2023/03/20 11:44:41;;;;;;;15.30;10.60;;;;;;;17.30;64.26;100303.00;128819;1255;113574;-62
2023/03/20 11:47:56;;;;;;;24.40;15.20;;;;;;;17.44;64.12;100298.48;128725;1254;113485;-62
2023/03/20 11:51:16;;;;;;;12.20;10.10;;;;;;;17.51;63.64;100295.63;128318;1254;113635;-62
2023/03/20 12:03:43;;;;;;;22.70;16.80;;;;;;;17.73;62.27;100283.58;127583;1270;113523;-63
2023/03/20 12:06:58;;;;;;;17.10;14.50;;;;;;;17.82;62.27;100284.48;127404;1265;113680;-63
2023/03/20 12:10:07;;;;;;;11.50;9.10;;;;;;;17.86;61.82;100278.56;127607;1265;113670;-63
2023/03/20 12:13:22;;;;;;;17.60;13.90;;;;;;;17.90;61.55;100275.21;127466;1265;128080;-64
2023/03/20 12:16:35;;;;;;;11.90;9.40;;;;;;;17.97;61.31;100274.08;127776;1265;114938;-64
2023/03/20 12:19:44;;;;;;;14.80;9.10;;;;;;;18.05;61.11;100265.13;129760;1265;113666;-64
2023/03/20 12:23:20;;;;;;;11.80;9.10;;;;;;;18.18;60.74;100266.10;128429;1269;113566;-65
2023/03/20 12:26:57;;;;;;;11.50;9.40;;;;;;;18.27;60.42;100261.90;127660;1265;113593;-64
2023/03/20 12:30:20;;;;;;;15.40;10.40;;;;;;;18.36;60.18;100255.35;127541;1270;128814;-65
2023/03/20 12:34:05;;;;;;;10.90;9.80;;;;;;;18.40;59.89;100254.52;127550;1270;114715;-65
2023/03/20 12:37:23;;;;;;;15.40;8.80;;;;;;;18.46;60.10;100255.86;128247;1259;114505;-65
2023/03/20 12:53:43;;;;;;;16.00;13.60;;;;;;;17.91;60.01;100249.80;128045;1263;114753;-66
2023/03/20 12:56:58;;;;;;;17.60;14.70;;;;;;;17.77;60.20;100250.63;128173;1263;114570;-68
2023/03/20 13:00:32;;;;;;;;;;;;;;;;;;;;;
2023/03/20 13:03:52;;;;;;;16.00;14.20;;;;;;;17.58;60.12;100240.01;128094;1263;113938;-64
2023/03/20 13:16:24;;;;;;;16.10;14.40;;;;;;;17.31;60.40;100233.05;127635;1265;115618;-64
2023/03/20 13:24:41;;;;;;;14.50;11.60;;;;;;;17.15;60.58;100238.48;127242;1273;114917;-64
2023/03/20 13:46:26;;;;;;;9.60;8.70;;;;;;;16.14;62.20;100241.77;126653;1280;115037;-64
2023/03/20 13:54:34;;;;;;;10.50;9.40;;;;;;;15.78;63.28;100204.67;126074;1280;115733;-64
2023/03/20 13:58:05;;;;;;;;;;;;;;;;;;;;;
2023/03/20 14:05:27;;;;;;;14.30;10.60;;;;;;;15.79;64.78;100204.99;126551;1282;114952;-65
2023/03/20 14:08:54;;;;;;;;;;;;;;;;;;;;;
2023/03/20 14:17:03;;;;;;;7.20;6.30;;;;;;;15.91;65.16;100205.95;127416;1273;113639;-64
2023/03/20 14:20:24;;;;;;;8.10;7.40;;;;;;;15.86;64.78;100196.78;127642;1268;113596;-68
2023/03/20 14:24:23;;;;;;;;;;;;;;;;;;;;;
2023/03/20 14:28:21;;;;;;;13.80;8.80;;;;;;;15.80;65.06;100199.52;127541;1268;128128;-68
2023/03/20 14:36:19;;;;;;;;;;;;;;;;;;;;;
2023/03/20 14:44:41;;;;;;;11.30;9.70;;;;;;;15.65;65.40;100224.36;127942;1260;114674;-65
2023/03/20 14:48:27;;;;;;;;;;;;;;;;;;;;;
2023/03/20 14:51:44;;;;;;;11.00;9.50;;;;;;;15.29;65.37;100238.61;127447;1271;114164;-69
2023/03/20 14:55:01;;;;;;;12.10;10.10;;;;;;;15.05;65.13;100241.52;128046;1268;114709;-65
2023/03/20 14:58:51;;;;;;;;;;;;;;;14.85;65.30;100236.75;128136;1264;113725;-70
2023/03/20 15:02:55;;;;;;;11.10;9.10;;;;;;;14.62;65.05;100234.51;128195;1263;113917;-69
2023/03/20 15:12:06;;;;;;;12.70;10.20;;;;;;;14.16;65.45;100237.55;127418;1267;114743;-71
2023/03/20 15:15:47;;;;;;;10.50;7.30;;;;;;;14.00;65.63;100233.02;129552;1271;114626;-70
2023/03/20 15:24:11;;;;;;;;;;;;;;;;;;;;;
2023/03/20 15:27:30;;;;;;;7.50;6.70;;;;;;;13.72;65.82;100233.05;127589;1270;127990;-68
2023/03/20 15:30:50;;;;;;;9.50;7.00;;;;;;;13.66;65.93;100226.19;127474;1270;114964;-66
2023/03/20 15:33:59;;;;;;;10.90;7.90;;;;;;;13.63;66.00;100234.34;128614;1271;113547;-69
2023/03/20 15:37:23;;;;;;;17.00;8.90;;;;;;;13.61;66.16;100240.73;127535;1268;113775;-67
2023/03/20 15:40:55;;;;;;;18.50;11.30;;;;;;;13.59;66.34;100241.76;127507;1273;113822;-65
2023/03/20 15:44:20;;;;;;;10.40;8.30;;;;;;;13.54;66.13;100249.23;128152;1277;128829;-68
2023/03/20 15:47:50;;;;;;;4.90;4.40;;;;;;;13.45;66.14;100258.92;131129;1260;114780;-67
2023/03/20 15:51:10;;;;;;;2.90;2.70;;;;;;;13.36;65.94;100256.95;131135;1264;113544;-71
2023/03/20 15:54:20;;;;;;;4.40;3.90;;;;;;;13.23;65.55;100259.35;131119;1262;114558;-69
2023/03/20 15:57:51;;;;;;;;;;;;;;;;;;;;;
2023/03/20 16:01:22;;;;;;;5.10;3.80;;;;;;;13.12;66.06;100275.30;128294;1256;129271;-66
2023/03/20 16:04:32;;;;;;;6.70;3.70;;;;;;;13.07;66.22;100279.70;128302;1256;114886;-68
2023/03/20 16:07:40;;;;;;;3.60;2.80;;;;;;;13.01;66.16;100285.80;128860;1258;113377;-65
2023/03/20 16:10:58;;;;;;;4.20;3.10;;;;;;;12.93;65.94;100283.75;128792;1256;113579;-67
2023/03/20 16:15:03;;;;;;;5.00;3.50;;;;;;;12.86;66.14;100286.14;131768;1256;113903;-68
2023/03/20 16:18:30;;;;;;;4.00;3.30;;;;;;;12.76;66.05;100291.36;128066;1263;127772;-65
2023/03/20 16:22:15;;;;;;;8.40;4.50;;;;;;;12.68;66.49;100283.81;131122;1260;114770;-67
2023/03/20 16:25:24;;;;;;;5.90;4.30;;;;;;;12.62;66.59;100283.08;128132;1264;113772;-68
2023/03/20 16:28:44;;;;;;;5.90;4.70;;;;;;;12.56;66.59;100286.27;131180;1263;113504;-66
2023/03/20 16:31:55;;;;;;;;;;;;;;;12.50;66.80;100290.75;128002;1265;113883;-66
2023/03/20 16:35:18;;;;;;;6.70;5.00;;;;;;;12.42;66.71;100295.48;131116;1262;128723;-69
2023/03/20 16:42:30;;;;;;;8.10;5.90;;;;;;;12.27;67.01;100292.03;131051;1266;113612;-67
2023/03/20 16:45:55;;;;;;;5.90;4.90;;;;;;;12.21;67.10;100294.02;128024;1265;114350;-67
2023/03/20 16:49:38;;;;;;;6.30;4.50;;;;;;;12.13;67.05;100299.61;128202;1262;113794;-67
2023/03/20 16:53:38;;;;;;;5.30;4.80;;;;;;;12.08;67.43;100308.16;128252;1264;128597;-66
2023/03/20 17:05:59;;;;;;;11.30;8.60;;;;;;;11.82;67.85;100316.68;127197;1271;113686;-66
2023/03/20 17:09:47;;;;;;;12.30;8.00;;;;;;;11.76;68.23;100322.22;129843;1270;116107;-65
2023/03/20 17:13:40;;;;;;;8.10;5.90;;;;;;;11.70;68.34;100320.39;129433;1271;128687;-65
2023/03/20 17:20:44;;;;;;;10.30;7.70;;;;;;;11.58;68.81;100327.31;126396;1282;113679;-64
2023/03/20 17:24:14;;;;;;;8.70;6.60;;;;;;;11.52;69.00;100320.62;126465;1277;113735;-64
2023/03/20 17:28:20;;;;;;;12.50;7.80;;;;;;;11.46;69.33;100330.79;129421;1277;114040;-65
2023/03/20 17:40:30;;;;;;;12.20;9.30;;;;;;;11.25;69.79;100322.56;125312;1293;114865;-66
2023/03/20 17:48:33;;;;;;;;;;;;;;;;;;;;;
2023/03/20 18:01:08;;;;;;;15.60;11.70;;;;;;;10.90;70.64;100342.79;126726;1279;115563;-66
2023/03/20 18:04:16;;;;;;;20.20;15.70;;;;;;;10.82;70.67;100343.33;129604;1279;113636;-70
2023/03/20 18:08:21;;;;;;;26.70;20.10;;;;;;;10.76;70.82;100346.48;129607;1262;114897;-68
2023/03/20 18:12:24;;;;;;;;;;;;;;;;;;;;;
2023/03/20 18:20:24;;;;;;;25.00;16.40;;;;;;;10.59;71.54;100341.08;126448;1280;114757;-64
2023/03/20 18:28:44;;;;;;;25.70;18.20;;;;;;;10.52;71.95;100347.99;126332;1286;113716;-69
2023/03/20 18:32:01;;;;;;;28.00;19.30;;;;;;;10.48;72.03;100348.41;126453;1283;127936;-70
2023/03/20 18:36:00;;;;;;;26.60;20.50;;;;;;;10.44;71.97;100346.74;126239;1280;116101;-70
2023/03/20 18:43:54;;;;;;;21.40;16.50;;;;;;;10.36;72.26;100336.23;119548;1277;113594;-65
2023/03/20 18:51:58;;;;;;;17.80;14.90;;;;;;;10.28;72.43;100334.30;129710;1262;114671;-68
2023/03/20 18:55:26;;;;;;;24.40;14.80;;;;;;;10.24;72.57;100335.04;130848;1265;114788;-70
2023/03/20 18:58:36;;;;;;;21.60;15.40;;;;;;;10.21;72.61;100339.47;131160;1260;129426;-69
2023/03/20 19:01:51;;;;;;;;;;;;;;;;;;;;;
2023/03/20 19:05:10;;;;;;;22.20;16.00;;;;;;;10.14;72.88;100340.66;128156;1261;113658;-70
2023/03/20 19:08:21;;;;;;;;;;;;;;;10.11;72.84;100341.34;128114;1265;114638;-67
2023/03/20 19:11:29;;;;;;;23.90;17.40;;;;;;;10.08;73.03;100338.11;128091;1265;113691;-64
2023/03/20 19:14:39;;;;;;;25.10;17.70;;;;;;;10.07;73.25;100334.60;128110;1260;128827;-64
2023/03/20 19:26:07;;;;;;;30.40;22.20;;;;;;;10.06;73.66;100331.08;129158;1258;114700;-66
2023/03/20 19:34:08;;;;;;;29.20;21.20;;;;;;;10.05;73.87;100337.51;128639;1256;127242;-67
2023/03/20 19:38:04;;;;;;;;;;;;;;;;;;;;;
2023/03/20 19:42:09;;;;;;;27.40;18.90;;;;;;;10.05;74.14;100343.94;128808;1254;113580;-65
2023/03/20 19:46:03;;;;;;;27.00;19.10;;;;;;;10.05;74.19;100347.17;128514;1256;113539;-65
2023/03/20 19:53:53;;;;;;;25.70;18.90;;;;;;;10.06;74.51;100347.47;128081;1263;128492;-69
2023/03/20 19:57:55;;;;;;;;;;;;;;;;;;;;;
2023/03/20 20:06:02;;;;;;;26.20;18.70;;;;;;;10.07;74.78;100350.10;126987;1276;114770;-65
2023/03/20 20:09:39;;;;;;;24.80;17.90;;;;;;;10.07;75.02;100352.95;127048;1274;113672;-67
2023/03/20 20:13:02;;;;;;;;;;;;;;;;;;;;;
2023/03/20 20:20:56;;;;;;;24.10;16.90;;;;;;;10.10;75.12;100354.10;126943;1276;113617;-66
2023/03/20 20:24:32;;;;;;;20.80;16.10;;;;;;;10.10;75.25;100354.59;127828;1274;113687;-70
2023/03/20 20:27:43;;;;;;;21.50;16.50;;;;;;;10.11;75.47;100355.61;127258;1274;113600;-69
2023/03/20 20:35:33;;;;;;;21.40;15.80;;;;;;;10.10;75.63;100351.56;127010;1275;114826;-68
2023/03/20 20:38:47;;;;;;;22.40;17.80;;;;;;;10.11;75.83;100352.93;127401;1276;113687;-67
2023/03/20 20:41:53;;;;;;;23.50;17.90;;;;;;;10.10;75.76;100351.93;127828;1266;115814;-66
2023/03/20 20:44:56;;;;;;;20.90;16.10;;;;;;;10.10;76.02;100352.28;130875;1260;114638;-71
2023/03/20 20:48:04;;;;;;;21.40;15.50;;;;;;;10.10;76.26;100351.73;131084;1265;127736;-71
2023/03/20 20:51:09;;;;;;;19.80;16.30;;;;;;;10.10;76.21;100352.97;131181;1262;114483;-71
2023/03/20 20:54:15;;;;;;;20.70;16.90;;;;;;;10.10;76.36;100346.02;128123;1265;113629;-66
2023/03/20 20:57:37;;;;;;;23.30;16.90;;;;;;;10.10;76.38;100344.25;130873;1260;113516;-69
2023/03/20 21:05:42;;;;;;;27.50;18.60;;;;;;;10.09;76.61;100345.73;129473;1263;128979;-71
2023/03/20 21:09:00;;;;;;;27.20;18.10;;;;;;;10.07;76.74;100342.79;131104;1260;115236;-70
2023/03/20 21:12:22;;;;;;;26.30;18.30;;;;;;;10.06;76.76;100344.61;128818;1260;113582;-71
2023/03/20 21:15:26;;;;;;;32.30;19.30;;;;;;;10.03;76.88;100342.59;128996;1258;113555;-71
2023/03/20 21:18:41;;;;;;;28.90;19.60;;;;;;;10.01;76.99;100341.45;128977;1255;113564;-68
2023/03/20 21:21:52;;;;;;;;;;;;;;;10.00;77.06;100340.42;128925;1258;127829;-71
2023/03/20 21:34:21;;;;;;;27.90;17.80;;;;;;;9.94;77.21;100348.91;132105;1254;114680;-71
2023/03/20 21:38:09;;;;;;;29.40;20.40;;;;;;;9.91;77.29;100343.70;132067;1254;113442;-76
2023/03/20 21:41:24;;;;;;;27.10;18.00;;;;;;;9.90;77.32;100344.63;131486;1258;128722;-71
2023/03/20 21:44:28;;;;;;;30.60;19.90;;;;;;;9.88;77.28;100339.37;131736;1254;115923;-72
2023/03/20 21:47:45;;;;;;;29.90;19.90;;;;;;;9.86;77.22;100343.20;131752;1254;113462;-73
2023/03/20 21:50:56;;;;;;;26.50;18.80;;;;;;;9.83;77.17;100341.39;131739;1254;113497;-78
2023/03/20 21:58:58;;;;;;;28.60;20.10;;;;;;;9.76;77.22;100342.78;131850;1258;128676;-76
2023/03/20 22:02:18;;;;;;;29.10;20.30;;;;;;;9.71;77.23;100350.30;131658;1258;115268;-71
2023/03/20 22:06:09;;;;;;;;;;;;;;;;;;;;;
2023/03/20 22:09:57;;;;;;;31.20;20.90;;;;;;;9.65;77.44;100347.04;131009;1261;113689;-73
2023/03/20 22:13:21;;;;;;;29.50;20.20;;;;;;;9.63;77.61;100339.64;131162;1260;114290;-78
2023/03/20 22:17:08;;;;;;;;;;;;;;;;;;;;;
2023/03/20 22:20:50;;;;;;;31.80;20.60;;;;;;;9.60;77.70;100335.67;131197;1260;115310;-76
2023/03/20 22:24:08;;;;;;;29.60;20.00;;;;;;;9.58;77.67;100336.81;130768;1264;114730;-74
2023/03/20 22:48:33;;;;;;;32.60;21.70;;;;;;;9.54;78.24;100335.17;129807;1274;116774;-69
2023/03/20 23:19:18;;;;;;;50.10;26.90;;;;;;;9.59;78.71;100321.97;129210;1273;128219;-70
2023/03/20 23:36:59;;;;;;;51.30;29.00;;;;;;;9.53;78.71;100328.29;129643;1279;113995;-74
2023/03/20 23:49:44;;;;;;;45.50;27.00;;;;;;;9.49;78.93;100316.19;128193;1291;114829;-70
